Herzlich willkommen!

Am freundlichen Bodensee-Flugplatz zwischen Schwarzwald, Rhein und Alpen.

Aktuelles

Bitte beachten Sie aus gegebenem Anlass auch unseren aktuellen Pilotenhinweis!

29.11.2020
Winterpause
In der Zeit von 14. Dezember 2020 bis 31. Januar 2021 hat der Flugplatz Konstanz Winterpause. PPR Tel. Erreichbarkeit unter 0172 7411981 oder 0170 5403107
— Flugleitung EDTZ

Live am Platz

Die Bilder unserer Webcams werden alle 5 Minuten aktualisiert.

Sonnenaufgang:

06:58 UTC / 07:58 Lokal

Sonnenuntergang:

16:12 UTC / 17:12 Lokal

METAR (23.01.2021 15:50 UTC):

EDNY 231550Z AUTO 05003KT 310V080 9999 // BKN097/// OVC150/// 03/M00 Q0996
VFR

TAF (23.01.2021 11:00 UTC):

TAF EDNY 231100Z 2312/2412 VRB03KT 9999 FEW050 PROB30 TEMPO 2315/2324 4000 -SNRA BECMG 2320/2322 25005KT BECMG 2400/2403 25010KT TEMPO 2400/2408 25015G25KT 3000 SHSN BKN012TCU

Alle Angaben unverbindlich und ohne Gewähr. Zeiten genähert.

Für den Verkehrslandeplatz Konstanz werden keine offiziellen Wetterinformationen ausgegeben. Daher werden zur Orientierung Daten des nahegelegenen Flughafens Friedrichshafen dargestellt.